Time;durP1;ratioP1;P1;durP2;ratioP2;P2;SDS_P1;SDS_P2;PMS_P1;PMS_P2;Temp;Humidity;BMP_temperature;BMP_pressure;BME280_temperature;BME280_humidity;BME280_pressure;Samples;Min_cycle;Max_cycle;Signal;HPM_P1;HPM_P2
2022/07/14 00:00:39;;;;;;;1.83;0.82;;;18.20;99.90;;;;;;5072386;28;20111;-63
2022/07/14 00:03:06;;;;;;;1.08;0.80;;;18.20;99.90;;;;;;5065868;28;20041;-63
2022/07/14 00:05:35;;;;;;;1.23;0.90;;;18.30;99.90;;;;;;5072998;28;20040;-62
2022/07/14 00:08:04;;;;;;;1.52;1.05;;;18.20;99.90;;;;;;5073043;28;20036;-63
2022/07/14 00:10:31;;;;;;;1.45;0.90;;;18.30;99.90;;;;;;5072576;28;20051;-63
2022/07/14 00:12:57;;;;;;;1.35;1.10;;;18.30;99.90;;;;;;5064588;28;20033;-62
2022/07/14 00:15:24;;;;;;;1.35;0.93;;;18.30;99.90;;;;;;5072813;28;20048;-62
2022/07/14 00:17:52;;;;;;;1.00;0.90;;;18.20;99.90;;;;;;5072827;28;20048;-62
2022/07/14 00:20:19;;;;;;;3.13;1.00;;;18.10;99.90;;;;;;5064127;28;20102;-62
2022/07/14 00:22:45;;;;;;;1.20;0.98;;;18.00;99.90;;;;;;5072719;28;20051;-62
2022/07/14 00:25:13;;;;;;;1.88;1.02;;;17.90;99.90;;;;;;5072700;28;20045;-63
2022/07/14 00:27:40;;;;;;;1.02;0.93;;;17.90;99.90;;;;;;5064565;28;20048;-62
2022/07/14 00:30:07;;;;;;;2.13;0.75;;;17.90;99.90;;;;;;5071988;28;20040;-62
2022/07/14 00:32:35;;;;;;;;;;;17.90;99.90;;;;;;5073092;28;20045;-62
2022/07/14 00:35:03;;;;;;;1.17;1.08;;;17.90;99.90;;;;;;5070419;28;19920;-62
2022/07/14 00:37:29;;;;;;;2.65;1.10;;;17.90;99.90;;;;;;5049848;28;20045;-62
2022/07/14 00:39:56;;;;;;;2.70;1.20;;;17.90;99.90;;;;;;5054096;28;20056;-62
2022/07/14 00:42:43;;;;;;;2.13;1.02;;;17.90;99.90;;;;;;5072116;28;20056;-62
2022/07/14 00:45:12;;;;;;;1.77;1.17;;;17.80;99.90;;;;;;5070012;28;20033;-62
2022/07/14 00:47:39;;;;;;;2.03;1.33;;;17.80;99.90;;;;;;5072228;28;20051;-63
2022/07/14 00:50:08;;;;;;;1.20;1.10;;;17.70;99.90;;;;;;5071940;28;20041;-62
2022/07/14 00:52:40;;;;;;;0.75;0.75;;;17.60;99.90;;;;;;5067741;28;20061;-62
2022/07/14 00:55:09;;;;;;;0.75;0.73;;;17.60;99.90;;;;;;5054301;28;20044;-62
2022/07/14 00:57:36;;;;;;;2.72;1.10;;;17.60;99.90;;;;;;5071780;28;20044;-63
2022/07/14 01:00:08;;;;;;;1.25;1.10;;;17.60;99.90;;;;;;5071718;28;20051;-62
2022/07/14 01:02:35;;;;;;;3.53;1.20;;;17.50;99.90;;;;;;5049750;28;20053;-62
2022/07/14 01:05:03;;;;;;;;;;;17.50;99.90;;;;;;5072122;28;20048;-62
2022/07/14 01:07:30;;;;;;;1.40;1.05;;;17.50;99.90;;;;;;5037364;28;19928;-62
2022/07/14 01:09:57;;;;;;;2.22;1.27;;;17.40;99.90;;;;;;5053385;28;20049;-62
2022/07/14 01:12:24;;;;;;;3.60;1.42;;;17.40;99.90;;;;;;5052250;28;20041;-62
2022/07/14 01:14:54;;;;;;;4.82;1.17;;;17.40;99.90;;;;;;5053589;28;20526;-62
2022/07/14 01:17:21;;;;;;;1.77;1.33;;;17.20;99.90;;;;;;5053812;28;20446;-62
2022/07/14 01:19:48;;;;;;;1.33;1.20;;;17.10;99.90;;;;;;5065346;28;20469;-63
2022/07/14 01:22:15;;;;;;;;;;;16.90;99.90;;;;;;5053836;28;20505;-62
2022/07/14 01:24:42;;;;;;;0.95;0.95;;;16.90;99.90;;;;;;5053786;28;20027;-62
2022/07/14 01:27:09;;;;;;;1.67;1.13;;;17.00;99.90;;;;;;5071421;28;20048;-62
2022/07/14 01:29:36;;;;;;;4.05;0.90;;;17.10;99.90;;;;;;5052560;28;20524;-62
2022/07/14 01:32:03;;;;;;;1.10;1.00;;;17.10;99.90;;;;;;5053506;28;20417;-62
2022/07/14 01:34:30;;;;;;;;;;;17.20;99.90;;;;;;5053783;28;20047;-63
2022/07/14 01:36:57;;;;;;;1.40;1.30;;;17.20;99.90;;;;;;5064460;28;19924;-62
2022/07/14 01:39:23;;;;;;;2.33;1.70;;;17.20;99.90;;;;;;5053419;28;20493;-62
2022/07/14 01:41:50;;;;;;;1.88;1.30;;;17.30;99.90;;;;;;5071245;28;20056;-62
2022/07/14 01:44:17;;;;;;;2.33;1.42;;;17.40;99.90;;;;;;5064414;28;20123;-62
2022/07/14 01:46:44;;;;;;;1.90;1.30;;;17.50;99.90;;;;;;5053045;28;20045;-62
2022/07/14 01:49:12;;;;;;;1.65;1.33;;;17.50;99.90;;;;;;5053387;28;20136;-62
2022/07/14 01:51:39;;;;;;;2.08;1.80;;;17.50;99.90;;;;;;5062821;28;20037;-62
2022/07/14 01:54:06;;;;;;;1.85;1.00;;;17.40;99.90;;;;;;5053307;28;20079;-62
2022/07/14 01:56:37;;;;;;;;;;;17.20;99.90;;;;;;5053796;28;20065;-62
2022/07/14 01:59:04;;;;;;;2.65;1.40;;;17.00;99.90;;;;;;5049519;28;19964;-62
2022/07/14 02:01:40;;;;;;;1.23;1.13;;;16.80;99.90;;;;;;5048419;28;20461;-62
2022/07/14 02:04:08;;;;;;;2.08;1.30;;;16.80;99.90;;;;;;5033313;28;20467;-62
2022/07/14 02:06:35;;;;;;;1.20;0.90;;;16.70;99.90;;;;;;5033268;28;20045;-62
2022/07/14 02:09:02;;;;;;;3.47;1.13;;;16.60;99.90;;;;;;5054296;28;20032;-62
2022/07/14 02:14:15;;;;;;;1.23;0.82;;;16.50;99.90;;;;;;5053301;28;19935;-62
2022/07/14 02:16:42;;;;;;;1.00;0.88;;;16.60;99.90;;;;;;5071005;28;20040;-62
2022/07/14 02:19:09;;;;;;;1.10;1.00;;;16.60;99.90;;;;;;5052130;28;20048;-62
2022/07/14 02:21:37;;;;;;;2.13;1.10;;;16.50;99.90;;;;;;5052677;28;20059;-62
2022/07/14 02:24:04;;;;;;;1.50;1.20;;;16.60;99.90;;;;;;5053396;28;20047;-62
2022/07/14 02:26:31;;;;;;;1.35;1.00;;;16.40;99.90;;;;;;5054714;28;20063;-62
2022/07/14 02:28:58;;;;;;;2.03;1.10;;;16.30;99.90;;;;;;5056713;28;20470;-62
2022/07/14 02:31:25;;;;;;;2.83;1.30;;;16.30;99.90;;;;;;5074750;28;20062;-62
2022/07/14 02:33:52;;;;;;;2.50;0.93;;;16.30;99.90;;;;;;5056957;28;20106;-62
2022/07/14 02:36:19;;;;;;;2.65;0.80;;;16.30;99.90;;;;;;5053065;28;20052;-62
2022/07/14 02:38:46;;;;;;;1.73;0.85;;;16.50;99.90;;;;;;5060006;28;20052;-62
2022/07/14 02:41:13;;;;;;;1.00;0.88;;;16.50;99.90;;;;;;5064411;28;20040;-62
2022/07/14 02:43:40;;;;;;;;;;;16.50;99.90;;;;;;5063920;28;20053;-62
2022/07/14 02:46:08;;;;;;;1.05;0.90;;;16.50;99.90;;;;;;5049210;28;20006;-62
2022/07/14 02:48:36;;;;;;;1.80;0.85;;;16.50;99.90;;;;;;5074389;28;20048;-62
2022/07/14 02:51:06;;;;;;;1.42;0.77;;;16.50;99.90;;;;;;5074073;28;20064;-62
2022/07/14 02:53:35;;;;;;;2.08;1.20;;;16.40;99.90;;;;;;5065843;28;20059;-62
2022/07/14 02:56:07;;;;;;;2.65;0.90;;;16.40;99.90;;;;;;5048316;28;20055;-62
2022/07/14 02:58:36;;;;;;;0.88;0.70;;;16.40;99.90;;;;;;5056352;28;20048;-62
2022/07/14 03:01:07;;;;;;;7.20;1.10;;;16.30;99.90;;;;;;5056080;28;20041;-62
2022/07/14 03:03:36;;;;;;;1.63;1.00;;;16.40;99.90;;;;;;5051932;28;20052;-62
2022/07/14 03:06:13;;;;;;;1.02;0.70;;;16.40;99.90;;;;;;5044675;28;20064;-62
2022/07/14 03:08:42;;;;;;;2.20;1.00;;;16.40;99.90;;;;;;5052964;28;20049;-62
2022/07/14 03:11:11;;;;;;;2.28;1.08;;;16.50;99.90;;;;;;5053748;28;20033;-62
2022/07/14 03:13:38;;;;;;;2.65;0.90;;;16.60;99.90;;;;;;5052556;28;20041;-62
2022/07/14 03:16:09;;;;;;;2.95;1.23;;;16.50;99.90;;;;;;5036326;28;20049;-62
2022/07/14 03:18:39;;;;;;;1.63;1.10;;;16.50;99.90;;;;;;5035796;28;20052;-63
2022/07/14 03:21:08;;;;;;;1.55;0.88;;;16.50;99.90;;;;;;5052852;28;20139;-62
2022/07/14 03:23:39;;;;;;;2.83;1.15;;;16.50;99.90;;;;;;5056176;28;20068;-62
2022/07/14 03:26:09;;;;;;;1.60;1.10;;;16.60;99.90;;;;;;5055805;28;20048;-62
2022/07/14 03:28:37;;;;;;;2.78;2.00;;;16.70;99.90;;;;;;5051408;28;20497;-62
2022/07/14 03:31:05;;;;;;;2.03;1.15;;;16.70;99.90;;;;;;5047472;28;20132;-62
2022/07/14 03:33:34;;;;;;;2.03;1.40;;;16.70;99.90;;;;;;5055917;28;20044;-62
2022/07/14 03:36:02;;;;;;;;;;;16.60;99.90;;;;;;5035771;28;20036;-63
2022/07/14 03:38:32;;;;;;;2.50;1.10;;;16.30;99.90;;;;;;5055739;28;19920;-62
2022/07/14 03:41:04;;;;;;;1.60;1.17;;;16.20;99.90;;;;;;5054554;28;20036;-62
2022/07/14 03:43:34;;;;;;;5.40;2.08;;;16.20;99.90;;;;;;5055267;28;20041;-62
2022/07/14 03:46:03;;;;;;;3.22;1.50;;;16.20;99.90;;;;;;5055559;28;20043;-62
2022/07/14 03:48:33;;;;;;;2.88;1.50;;;16.30;99.90;;;;;;5054204;28;20045;-62
2022/07/14 03:51:03;;;;;;;1.52;1.35;;;16.50;99.90;;;;;;5055057;28;20044;-62
2022/07/14 03:53:32;;;;;;;1.52;1.40;;;16.70;99.90;;;;;;5073449;28;20047;-62
2022/07/14 03:56:00;;;;;;;2.08;1.60;;;16.80;99.90;;;;;;5053937;28;20036;-63
2022/07/14 03:58:34;;;;;;;3.17;1.60;;;16.90;99.90;;;;;;5055290;28;20048;-62
2022/07/14 04:01:03;;;;;;;2.22;1.48;;;17.00;99.90;;;;;;5054887;28;20463;-63
2022/07/14 04:03:31;;;;;;;1.50;1.38;;;17.40;99.90;;;;;;5055346;28;20444;-62
2022/07/14 04:05:59;;;;;;;2.22;1.60;;;17.60;99.90;;;;;;5053491;28;20045;-62
2022/07/14 04:08:26;;;;;;;4.85;1.80;;;17.60;99.90;;;;;;5054937;28;20505;-62
2022/07/14 04:10:58;;;;;;;4.80;1.70;;;17.60;99.90;;;;;;5054732;28;20059;-62
2022/07/14 04:13:25;;;;;;;2.25;2.05;;;17.60;99.90;;;;;;5053849;28;20099;-62
2022/07/14 04:15:52;;;;;;;3.47;1.92;;;17.60;99.90;;;;;;5050821;28;20044;-62
2022/07/14 04:18:19;;;;;;;2.97;1.58;;;17.60;99.90;;;;;;5049772;23;20079;-60
2022/07/14 04:20:47;;;;;;;;;;;17.50;99.90;;;;;;5047503;28;20045;-60
2022/07/14 04:23:13;;;;;;;2.38;1.63;;;17.30;99.90;;;;;;5049494;28;19924;-59
2022/07/14 04:25:40;;;;;;;3.55;1.73;;;17.10;99.90;;;;;;5042243;28;20041;-60
2022/07/14 04:28:07;;;;;;;2.47;1.70;;;17.00;99.90;;;;;;5051155;28;20055;-60
2022/07/14 04:30:34;;;;;;;4.50;1.60;;;16.90;99.90;;;;;;5066974;28;20047;-60
2022/07/14 04:33:09;;;;;;;2.78;1.60;;;16.80;99.90;;;;;;5071459;28;20143;-60
2022/07/14 04:35:37;;;;;;;3.20;1.70;;;16.70;99.90;;;;;;5059238;28;20521;-60
2022/07/14 04:38:05;;;;;;;2.53;1.40;;;16.90;99.90;;;;;;5051073;28;20091;-60
2022/07/14 04:40:45;;;;;;;1.55;1.20;;;17.00;99.90;;;;;;5051007;28;20033;-60
2022/07/14 04:43:12;;;;;;;3.53;1.40;;;17.20;99.90;;;;;;5051288;28;20141;-60
2022/07/14 04:45:39;;;;;;;;;;;17.30;99.90;;;;;;5052743;28;20045;-60
2022/07/14 04:48:06;;;;;;;1.75;1.33;;;17.30;99.90;;;;;;5068647;28;19932;-60
2022/07/14 04:53:21;;;;;;;2.25;1.40;;;17.40;99.90;;;;;;5056349;28;20045;-60
2022/07/14 04:55:54;;;;;;;1.80;1.20;;;17.50;99.90;;;;;;5055613;28;20048;-60
2022/07/14 04:58:27;;;;;;;3.85;1.40;;;17.50;99.90;;;;;;5042004;28;20108;-60
2022/07/14 05:00:58;;;;;;;1.92;1.45;;;17.50;99.90;;;;;;5041611;28;20118;-60
2022/07/14 05:03:30;;;;;;;2.58;1.50;;;17.50;99.90;;;;;;5047315;28;20079;-59
2022/07/14 05:05:58;;;;;;;3.80;1.95;;;17.60;99.90;;;;;;5062134;28;20071;-60
2022/07/14 05:08:25;;;;;;;2.28;1.63;;;17.70;99.90;;;;;;5053961;28;20480;-59
2022/07/14 05:10:53;;;;;;;5.85;1.80;;;17.80;99.90;;;;;;5068400;28;20149;-60
2022/07/14 05:13:20;;;;;;;3.88;2.00;;;18.00;99.90;;;;;;5058852;28;20045;-60
2022/07/14 05:15:48;;;;;;;4.95;1.90;;;18.20;99.90;;;;;;5068417;28;20047;-60
2022/07/14 05:18:15;;;;;;;2.47;1.98;;;18.50;99.90;;;;;;5070535;28;20493;-60
2022/07/14 05:20:42;;;;;;;;;;;18.70;99.90;;;;;;5060973;28;20045;-60
2022/07/14 05:23:09;;;;;;;4.20;2.28;;;19.00;99.90;;;;;;5063019;28;19928;-60
2022/07/14 05:25:37;;;;;;;4.18;2.00;;;19.20;99.90;;;;;;5070568;28;20052;-60
2022/07/14 05:28:04;;;;;;;2.75;1.88;;;19.30;99.90;;;;;;5070226;28;20072;-60
2022/07/14 05:30:49;;;;;;;3.72;1.83;;;19.30;99.90;;;;;;5057586;28;20044;-60
2022/07/14 05:33:15;;;;;;;;;;;19.20;99.90;;;;;;5070838;28;20044;-60
2022/07/14 05:35:43;;;;;;;2.00;1.70;;;19.20;99.90;;;;;;5070401;28;19924;-60
2022/07/14 05:38:10;;;;;;;4.78;1.58;;;19.10;99.90;;;;;;5061355;28;20044;-60
2022/07/14 05:40:37;;;;;;;7.45;1.63;;;19.00;99.90;;;;;;5061447;28;20139;-60
2022/07/14 05:43:04;;;;;;;3.15;1.75;;;18.80;99.90;;;;;;5063875;28;20080;-60
2022/07/14 05:45:32;;;;;;;10.65;1.80;;;18.80;99.90;;;;;;5053904;28;20456;-59
2022/07/14 05:47:59;;;;;;;2.78;1.80;;;18.70;99.90;;;;;;5061689;28;20067;-60
2022/07/14 05:50:26;;;;;;;2.63;1.67;;;18.60;99.90;;;;;;5071020;28;20036;-60
2022/07/14 05:52:54;;;;;;;5.38;2.50;;;18.70;99.90;;;;;;5068989;28;20112;-59
2022/07/14 05:55:22;;;;;;;3.13;1.75;;;18.70;99.90;;;;;;5061639;28;20049;-60
2022/07/14 05:57:52;;;;;;;2.22;1.75;;;18.70;99.90;;;;;;5056363;28;20099;-59
2022/07/14 06:00:18;;;;;;;6.88;1.80;;;18.70;99.90;;;;;;5048772;28;20048;-60
2022/07/14 06:02:49;;;;;;;2.65;1.70;;;18.70;99.90;;;;;;5057718;28;20102;-60
2022/07/14 06:05:25;;;;;;;3.60;1.80;;;18.70;99.90;;;;;;5064629;28;20048;-59
2022/07/14 06:07:52;;;;;;;12.60;2.22;;;18.80;99.90;;;;;;5060665;28;20048;-59
2022/07/14 06:10:19;;;;;;;5.22;2.30;;;18.90;99.90;;;;;;5050667;28;20148;-60
2022/07/14 06:12:49;;;;;;;2.63;1.92;;;19.10;99.90;;;;;;5054682;28;20132;-60
2022/07/14 06:15:16;;;;;;;;;;;19.20;99.90;;;;;;5031980;28;20045;-60
2022/07/14 06:17:43;;;;;;;3.70;2.00;;;19.30;99.90;;;;;;5049447;28;19920;-60
2022/07/14 06:20:11;;;;;;;2.88;2.25;;;19.40;99.90;;;;;;5051555;28;20416;-60
2022/07/14 06:22:41;;;;;;;4.05;2.17;;;19.30;99.90;;;;;;5055545;28;20075;-60
2022/07/14 06:25:08;;;;;;;7.63;1.95;;;19.40;99.90;;;;;;5050617;28;20047;-60
2022/07/14 06:27:35;;;;;;;2.80;1.85;;;19.50;99.90;;;;;;5045490;28;20038;-60
2022/07/14 06:30:05;;;;;;;3.72;2.00;;;19.70;99.90;;;;;;5057171;28;20607;-60
2022/07/14 06:32:33;;;;;;;4.03;2.17;;;19.70;99.90;;;;;;5047208;28;20045;-60
2022/07/14 06:35:01;;;;;;;1.63;1.50;;;19.90;99.90;;;;;;5049359;28;20501;-60
2022/07/14 06:37:29;;;;;;;3.58;2.22;;;19.90;99.90;;;;;;5048555;28;20052;-60
2022/07/14 06:39:56;;;;;;;3.85;2.55;;;19.80;99.90;;;;;;5059730;28;20540;-60
2022/07/14 06:42:23;;;;;;;4.18;2.05;;;19.70;99.90;;;;;;5069482;28;20044;-60
2022/07/14 06:45:14;;;;;;;3.08;1.83;;;19.60;99.90;;;;;;5069398;28;20102;-59
2022/07/14 06:47:42;;;;;;;8.05;2.22;;;19.60;99.90;;;;;;5057606;28;20073;-60
2022/07/14 06:50:09;;;;;;;4.70;2.30;;;19.60;99.90;;;;;;5069015;28;20052;-60
2022/07/14 06:52:36;;;;;;;3.75;2.28;;;19.50;99.90;;;;;;5069192;28;20040;-60
2022/07/14 06:55:04;;;;;;;2.92;2.15;;;19.60;99.90;;;;;;5065541;28;20075;-60
2022/07/14 06:57:31;;;;;;;7.78;2.67;;;19.60;99.90;;;;;;5066175;28;20052;-60
2022/07/14 06:59:58;;;;;;;3.35;2.30;;;19.60;99.90;;;;;;5070088;28;20052;-60
2022/07/14 07:02:25;;;;;;;3.97;2.22;;;19.90;99.90;;;;;;5069354;28;20052;-60
2022/07/14 07:07:37;;;;;;;4.78;2.10;;;20.10;99.90;;;;;;5070225;28;20044;-60
2022/07/14 07:10:04;;;;;;;3.95;2.80;;;20.10;99.90;;;;;;5070255;28;20044;-60
2022/07/14 07:12:31;;;;;;;;;;;20.10;99.90;;;;;;5067879;28;20048;-60
2022/07/14 07:14:58;;;;;;;6.78;2.28;;;20.20;99.90;;;;;;5065555;28;19921;-60
2022/07/14 07:17:24;;;;;;;6.05;2.30;;;20.20;99.90;;;;;;5073826;28;20520;-60
2022/07/14 07:19:51;;;;;;;6.18;2.60;;;20.30;99.90;;;;;;5067479;28;20045;-60
2022/07/14 07:22:18;;;;;;;5.60;2.30;;;20.30;99.90;;;;;;5065240;28;20052;-60
2022/07/14 07:24:45;;;;;;;5.80;2.13;;;20.20;99.90;;;;;;5073815;28;20045;-60
2022/07/14 07:27:11;;;;;;;3.05;2.03;;;20.20;99.90;;;;;;5071339;28;20044;-60
2022/07/14 07:29:38;;;;;;;3.75;2.20;;;20.50;99.90;;;;;;5065344;28;20045;-60
2022/07/14 07:32:05;;;;;;;3.92;2.30;;;21.10;99.90;;;;;;5073421;28;20052;-60
2022/07/14 07:34:33;;;;;;;;;;;21.80;99.90;;;;;;5074085;28;20492;-60
2022/07/14 07:37:00;;;;;;;3.03;2.47;;;22.20;99.90;;;;;;5069001;28;19947;-60
2022/07/14 07:39:47;;;;;;;3.50;2.28;;;22.40;99.90;;;;;;5065191;28;20044;-60
2022/07/14 07:42:14;;;;;;;;;;;22.60;99.90;;;;;;5073740;28;20051;-61
2022/07/14 07:44:41;;;;;;;2.92;2.35;;;22.60;99.90;;;;;;5072575;28;19958;-60
2022/07/14 07:47:07;;;;;;;;;;;22.80;99.90;;;;;;5061559;28;20045;-61
2022/07/14 07:49:35;;;;;;;13.85;2.72;;;22.80;99.90;;;;;;5069260;28;20381;-61
2022/07/14 07:52:02;;;;;;;2.35;1.80;;;23.00;99.90;;;;;;5071701;28;20040;-61
2022/07/14 07:54:29;;;;;;;4.35;2.40;;;23.10;99.90;;;;;;5063840;28;20489;-60
2022/07/14 07:57:16;;;;;;;3.60;2.53;;;23.00;99.90;;;;;;5052651;28;20045;-60
2022/07/14 07:59:43;;;;;;;6.35;2.25;;;23.20;99.90;;;;;;5053023;28;20076;-60
2022/07/14 08:02:10;;;;;;;3.45;2.33;;;23.50;99.90;;;;;;5052570;28;20064;-61
2022/07/14 08:04:37;;;;;;;;;;;23.70;99.90;;;;;;5060039;28;20668;-61
2022/07/14 08:07:04;;;;;;;3.35;2.40;;;23.50;99.90;;;;;;5033233;28;19921;-61
2022/07/14 08:09:30;;;;;;;2.67;2.33;;;23.20;99.90;;;;;;5033048;28;20041;-61
2022/07/14 08:11:57;;;;;;;6.97;2.20;;;23.20;99.90;;;;;;5056696;28;20098;-61
2022/07/14 08:17:09;;;;;;;7.78;2.38;;;23.10;99.90;;;;;;5059154;28;20052;-61
2022/07/14 08:19:36;;;;;;;;;;;23.00;99.90;;;;;;5053052;28;20080;-61
2022/07/14 08:22:03;;;;;;;5.50;2.55;;;22.80;99.90;;;;;;5063607;28;19920;-60
2022/07/14 08:24:30;;;;;;;9.13;2.75;;;22.70;99.90;;;;;;5072992;28;20052;-61
2022/07/14 08:26:57;;;;;;;3.53;2.10;;;22.80;99.90;;;;;;5072597;28;20114;-60
2022/07/14 08:29:23;;;;;;;3.50;2.10;;;22.60;99.90;;;;;;5065377;28;20048;-61
2022/07/14 08:31:50;;;;;;;3.67;2.38;;;22.60;99.90;;;;;;5063826;28;20044;-60
2022/07/14 08:34:17;;;;;;;3.70;2.33;;;22.60;99.90;;;;;;5058102;28;20044;-60
2022/07/14 08:36:44;;;;;;;2.67;2.25;;;22.60;99.90;;;;;;5052725;28;20048;-61
2022/07/14 08:39:11;;;;;;;4.13;2.45;;;22.70;99.90;;;;;;5064145;28;20432;-61
2022/07/14 08:41:38;;;;;;;5.85;2.70;;;22.90;99.90;;;;;;5062561;28;20066;-61
2022/07/14 08:44:05;;;;;;;5.22;2.60;;;23.00;99.90;;;;;;5052424;28;20485;-61
2022/07/14 08:46:32;;;;;;;;;;;23.20;99.90;;;;;;5060358;28;20044;-61
2022/07/14 08:49:00;;;;;;;3.15;2.22;;;23.10;99.90;;;;;;5071628;28;19921;-60
2022/07/14 08:51:27;;;;;;;4.32;2.65;;;23.30;99.90;;;;;;5071900;28;20045;-60
2022/07/14 08:53:53;;;;;;;;;;;23.50;99.90;;;;;;5063708;28;20056;-59
2022/07/14 08:56:20;;;;;;;3.33;2.33;;;23.70;99.90;;;;;;5063927;28;19931;-60
2022/07/14 08:58:47;;;;;;;;;;;24.00;99.90;;;;;;5071008;28;20056;-60
2022/07/14 09:01:14;;;;;;;6.28;2.40;;;24.10;99.90;;;;;;5071858;28;19925;-61
2022/07/14 09:03:41;;;;;;;5.55;2.15;;;24.20;99.90;;;;;;5065059;28;20060;-60
2022/07/14 09:07:00;;;;;;;5.75;2.60;;;24.40;99.90;;;;;;5067248;28;20078;-60
2022/07/14 09:09:34;;;;;;;4.55;2.50;;;24.90;99.90;;;;;;5027495;28;20500;-61
2022/07/14 09:12:05;;;;;;;3.03;2.25;;;24.70;99.90;;;;;;5066902;28;20029;-60
2022/07/14 09:17:22;;;;;;;;;;;24.90;99.90;;;;;;5072264;28;20048;-60
2022/07/14 09:20:04;;;;;;;5.15;2.97;;;25.00;99.90;;;;;;5066267;28;19964;-59
2022/07/14 09:22:36;;;;;;;2.78;2.38;;;24.90;99.90;;;;;;5067132;28;20036;-61
2022/07/14 09:25:05;;;;;;;7.53;2.85;;;25.00;99.90;;;;;;5072066;28;20041;-60
2022/07/14 09:27:32;;;;;;;3.30;2.40;;;25.20;99.90;;;;;;5066133;28;20041;-60
2022/07/14 09:29:59;;;;;;;4.72;2.10;;;25.30;99.30;;;;;;5062742;28;20048;-60
2022/07/14 09:32:47;;;;;;;3.20;2.33;;;25.40;99.70;;;;;;5069999;28;20055;-60
2022/07/14 09:35:17;;;;;;;3.13;2.20;;;25.50;99.50;;;;;;5050976;28;20045;-60
2022/07/14 09:37:45;;;;;;;4.50;2.38;;;25.60;98.90;;;;;;5060032;28;20493;-60
2022/07/14 09:40:19;;;;;;;6.50;2.55;;;25.80;99.90;;;;;;5071141;28;20197;-60
2022/07/14 09:42:51;;;;;;;2.13;1.92;;;25.90;99.90;;;;;;5045343;28;20051;-60
2022/07/14 09:45:40;;;;;;;2.70;2.15;;;26.00;99.90;;;;;;5056386;28;20037;-60
2022/07/14 09:48:19;;;;;;;2.53;2.33;;;26.10;99.90;;;;;;5057874;28;20043;-60
2022/07/14 09:50:57;;;;;;;4.47;2.35;;;26.20;99.90;;;;;;5071097;28;20036;-60
2022/07/14 09:53:29;;;;;;;2.55;2.35;;;26.20;99.90;;;;;;5067633;28;20079;-59
2022/07/14 09:56:07;;;;;;;4.60;2.00;;;26.40;99.90;;;;;;5050927;28;20029;-60
2022/07/14 09:58:56;;;;;;;3.30;2.50;;;26.50;99.70;;;;;;5049410;28;20045;-60
2022/07/14 10:01:24;;;;;;;4.43;2.10;;;26.90;98.40;;;;;;5050247;28;20053;-60
2022/07/14 10:03:54;;;;;;;2.15;1.90;;;27.10;99.90;;;;;;5058770;28;20044;-60
2022/07/14 10:06:21;;;;;;;4.18;1.80;;;26.90;97.90;;;;;;5065416;28;20521;-60
2022/07/14 10:09:08;;;;;;;1.75;1.52;;;27.00;95.90;;;;;;5071283;28;20047;-60
2022/07/14 10:11:36;;;;;;;4.03;1.83;;;27.00;97.70;;;;;;5070583;28;20102;-60
2022/07/14 10:14:03;;;;;;;2.20;2.00;;;27.00;95.40;;;;;;5063116;28;20037;-59
2022/07/14 10:16:33;;;;;;;5.30;2.17;;;27.00;95.10;;;;;;5066491;28;20049;-60
2022/07/14 10:19:01;;;;;;;2.97;2.05;;;27.00;96.80;;;;;;5081240;22;20048;-61
2022/07/14 10:21:38;;;;;;;5.97;2.20;;;27.10;96.60;;;;;;5060477;28;20044;-61
2022/07/14 10:24:05;;;;;;;;;;;27.50;96.50;;;;;;5066346;28;20044;-61
2022/07/14 10:26:33;;;;;;;2.40;2.20;;;27.80;96.00;;;;;;5070867;28;19924;-61
2022/07/14 10:29:04;;;;;;;4.30;2.20;;;28.10;95.40;;;;;;5070840;28;20052;-61
2022/07/14 10:31:37;;;;;;;2.90;2.40;;;28.20;96.00;;;;;;5066484;28;20045;-62
2022/07/14 10:34:27;;;;;;;4.20;2.00;;;28.20;96.60;;;;;;5062908;28;20531;-61
2022/07/14 10:37:20;;;;;;;3.65;2.15;;;28.20;94.50;;;;;;5070926;28;20047;-61
2022/07/14 10:40:06;;;;;;;2.85;1.90;;;28.20;95.10;;;;;;5070808;28;20489;-61
2022/07/14 10:43:06;;;;;;;3.03;2.05;;;28.30;95.20;;;;;;5068788;28;20097;-61
2022/07/14 10:45:52;;;;;;;6.35;2.33;;;28.40;94.60;;;;;;5052245;28;20049;-61
2022/07/14 10:48:36;;;;;;;4.43;2.40;;;28.30;94.90;;;;;;5054399;28;20044;-61
2022/07/14 10:51:19;;;;;;;2.20;2.00;;;28.50;94.20;;;;;;5073770;28;20044;-61
2022/07/14 10:54:06;;;;;;;2.20;2.00;;;28.70;94.60;;;;;;5074364;28;20044;-61
2022/07/14 10:57:12;;;;;;;2.85;2.10;;;28.80;93.60;;;;;;5074507;28;20098;-61
2022/07/14 10:59:40;;;;;;;2.90;2.30;;;29.00;93.50;;;;;;5070747;28;20036;-61
2022/07/14 11:02:15;;;;;;;4.93;2.10;;;29.10;93.20;;;;;;5073984;28;20404;-61
2022/07/14 11:05:08;;;;;;;2.83;2.15;;;29.30;92.60;;;;;;5074152;28;20516;-61
2022/07/14 11:08:07;;;;;;;2.53;1.92;;;29.20;91.80;;;;;;5071110;28;20220;-61
2022/07/14 11:10:36;;;;;;;2.40;2.20;;;29.10;91.70;;;;;;5069822;28;20048;-61
2022/07/14 11:13:06;;;;;;;2.50;2.30;;;29.00;91.30;;;;;;5074010;28;20052;-61
2022/07/14 11:15:53;;;;;;;2.50;2.30;;;29.20;91.80;;;;;;5066153;28;20053;-61
2022/07/14 11:18:29;;;;;;;2.20;2.00;;;29.30;91.20;;;;;;5067754;28;20097;-61
2022/07/14 11:21:04;;;;;;;2.92;2.13;;;29.20;90.80;;;;;;5073756;28;20119;-61
2022/07/14 11:23:47;;;;;;;2.65;2.28;;;29.10;91.40;;;;;;5066636;28;20055;-61
2022/07/14 11:26:32;;;;;;;3.70;1.95;;;29.30;90.20;;;;;;5067147;28;20115;-61
2022/07/14 11:29:00;;;;;;;2.67;1.77;;;29.50;90.30;;;;;;5071522;28;20392;-61
2022/07/14 11:31:27;;;;;;;2.45;1.85;;;29.50;89.20;;;;;;5072131;28;20405;-61
2022/07/14 11:37:00;;;;;;;4.40;1.95;;;29.80;92.80;;;;;;5071645;28;19921;-62
2022/07/14 11:39:47;;;;;;;4.00;2.03;;;30.10;93.70;;;;;;5070711;28;20048;-62
2022/07/14 11:42:16;;;;;;;;;;;30.30;94.00;;;;;;5073811;28;20048;-63
2022/07/14 11:44:45;;;;;;;2.58;2.17;;;30.30;93.00;;;;;;5071211;28;19958;-61
2022/07/14 11:47:29;;;;;;;2.20;2.00;;;30.40;91.60;;;;;;5072749;28;20063;-62
2022/07/14 11:50:00;;;;;;;2.03;1.92;;;30.30;93.30;;;;;;5072520;28;20044;-62
2022/07/14 11:52:39;;;;;;;2.83;1.65;;;30.20;94.40;;;;;;5073124;28;20404;-62
2022/07/14 11:55:09;;;;;;;3.70;1.83;;;30.40;93.30;;;;;;5065187;28;20048;-62
2022/07/14 11:57:36;;;;;;;2.85;1.90;;;30.40;92.40;;;;;;5072363;28;20203;-62
2022/07/14 12:00:09;;;;;;;2.17;1.95;;;30.50;91.20;;;;;;5072238;28;20578;-62
2022/07/14 12:02:53;;;;;;;6.35;1.80;;;30.70;90.50;;;;;;5063772;28;20063;-61
2022/07/14 12:05:22;;;;;;;3.38;1.77;;;30.90;89.40;;;;;;5072692;28;20470;-61
2022/07/14 12:07:51;;;;;;;2.92;1.73;;;30.90;86.10;;;;;;5072671;28;20048;-61
2022/07/14 12:10:41;;;;;;;3.25;1.65;;;30.80;81.90;;;;;;5071686;28;20045;-62
2022/07/14 12:13:09;;;;;;;2.85;1.75;;;30.90;88.80;;;;;;5067907;28;20037;-62
2022/07/14 12:15:36;;;;;;;4.20;2.47;;;31.00;89.00;;;;;;5072018;28;20047;-62
2022/07/14 12:18:05;;;;;;;3.63;2.05;;;31.10;89.60;;;;;;5052163;28;20398;-62
2022/07/14 12:20:39;;;;;;;5.45;1.95;;;31.10;83.20;;;;;;5070811;28;20047;-62
2022/07/14 12:23:06;;;;;;;1.85;1.65;;;31.20;82.10;;;;;;5069702;28;20052;-62
2022/07/14 12:25:36;;;;;;;2.95;1.65;;;31.30;82.50;;;;;;5072083;28;20052;-62
2022/07/14 12:28:07;;;;;;;2.92;1.70;;;31.60;80.60;;;;;;5071922;28;20051;-61
2022/07/14 12:30:50;;;;;;;1.70;1.60;;;31.80;79.10;;;;;;5070311;28;20051;-61
2022/07/14 12:33:22;;;;;;;4.82;2.20;;;31.80;82.60;;;;;;5072350;28;20086;-62
2022/07/14 12:35:52;;;;;;;3.22;1.60;;;31.80;78.60;;;;;;5070432;28;20408;-61
2022/07/14 12:38:19;;;;;;;1.73;1.63;;;31.90;78.20;;;;;;5072272;28;20102;-61
2022/07/14 12:40:52;;;;;;;2.20;1.40;;;32.00;77.90;;;;;;5065889;28;20044;-61
2022/07/14 12:43:26;;;;;;;1.88;1.48;;;32.00;76.80;;;;;;5072184;28;20408;-61
2022/07/14 12:46:09;;;;;;;1.35;1.25;;;32.00;77.70;;;;;;5071798;28;20543;-62
2022/07/14 12:48:49;;;;;;;3.10;1.30;;;32.30;79.30;;;;;;5066266;28;20507;-62
2022/07/14 12:51:40;;;;;;;3.10;1.40;;;32.60;79.60;;;;;;5065047;28;20041;-62
2022/07/14 12:54:18;;;;;;;2.47;1.63;;;32.80;80.90;;;;;;5061222;28;20149;-62
2022/07/14 12:57:05;;;;;;;2.42;1.60;;;33.10;82.50;;;;;;5071290;28;20428;-62
2022/07/14 12:59:36;;;;;;;3.90;1.80;;;33.10;83.90;;;;;;5069503;28;20128;-62
2022/07/14 13:02:07;;;;;;;1.77;1.67;;;32.90;81.30;;;;;;5070737;28;20059;-62
2022/07/14 13:04:37;;;;;;;4.70;1.70;;;32.90;85.90;;;;;;5050197;28;20456;-62
2022/07/14 13:07:25;;;;;;;2.78;1.48;;;32.90;86.80;;;;;;5068189;28;20059;-62
2022/07/14 13:10:13;;;;;;;2.25;1.50;;;32.60;84.60;;;;;;5068617;28;20041;-62
2022/07/14 13:12:51;;;;;;;4.40;1.70;;;32.50;84.20;;;;;;5068270;28;20041;-62
2022/07/14 13:15:25;;;;;;;1.70;1.60;;;32.00;87.30;;;;;;5066883;28;20037;-62
2022/07/14 13:18:05;;;;;;;4.60;1.70;;;31.50;85.60;;;;;;5070970;28;20040;-62
2022/07/14 13:20:48;;;;;;;2.83;1.92;;;31.20;84.80;;;;;;5071155;28;20440;-61
2022/07/14 13:23:38;;;;;;;3.10;1.55;;;31.00;87.80;;;;;;5064666;28;20436;-62
2022/07/14 13:26:05;;;;;;;4.03;1.60;;;31.00;86.70;;;;;;5070410;28;20043;-62
2022/07/14 13:28:34;;;;;;;4.18;1.70;;;30.90;85.60;;;;;;5053266;28;20402;-62